sensor_id;sensor_type;location;lat;lon;timestamp;pressure;altitude;pressure_sealevel;temperature;humidity
59877;BME280;45749;51.140;17.184;2023-04-27T00:00:38;100327.50;;;6.67;63.46
59877;BME280;45749;51.140;17.184;2023-04-27T00:03:03;100330.44;;;6.61;63.26
59877;BME280;45749;51.140;17.184;2023-04-27T00:05:36;100320.31;;;6.54;63.48
59877;BME280;45749;51.140;17.184;2023-04-27T00:08:04;100316.00;;;6.53;63.66
59877;BME280;45749;51.140;17.184;2023-04-27T00:10:29;100317.00;;;6.51;63.73
59877;BME280;45749;51.140;17.184;2023-04-27T00:12:55;100316.16;;;6.50;63.56
59877;BME280;45749;51.140;17.184;2023-04-27T00:15:20;100324.03;;;6.50;63.79
59877;BME280;45749;51.140;17.184;2023-04-27T00:17:46;100316.44;;;6.46;64.03
59877;BME280;45749;51.140;17.184;2023-04-27T00:20:12;100324.31;;;6.46;63.98
59877;BME280;45749;51.140;17.184;2023-04-27T00:22:38;100318.13;;;6.47;64.11
59877;BME280;45749;51.140;17.184;2023-04-27T00:25:04;100312.81;;;6.48;63.84
59877;BME280;45749;51.140;17.184;2023-04-27T00:27:30;100320.66;;;6.48;64.22
59877;BME280;45749;51.140;17.184;2023-04-27T00:29:56;100303.66;;;6.40;64.26
59877;BME280;45749;51.140;17.184;2023-04-27T00:32:21;100316.44;;;6.46;63.95
59877;BME280;45749;51.140;17.184;2023-04-27T00:34:47;100315.75;;;6.42;63.81
59877;BME280;45749;51.140;17.184;2023-04-27T00:37:12;100323.03;;;6.37;64.06
59877;BME280;45749;51.140;17.184;2023-04-27T00:39:38;100328.38;;;6.36;64.15
59877;BME280;45749;51.140;17.184;2023-04-27T00:42:03;100332.94;;;6.32;64.14
59877;BME280;45749;51.140;17.184;2023-04-27T00:44:28;100313.22;;;6.25;64.39
59877;BME280;45749;51.140;17.184;2023-04-27T00:46:54;100322.09;;;6.22;64.16
59877;BME280;45749;51.140;17.184;2023-04-27T00:49:20;100319.13;;;6.13;64.41
59877;BME280;45749;51.140;17.184;2023-04-27T00:51:47;100321.41;;;6.03;64.34
59877;BME280;45749;51.140;17.184;2023-04-27T00:54:14;100327.81;;;5.97;64.59
59877;BME280;45749;51.140;17.184;2023-04-27T00:56:40;100325.75;;;5.86;64.68
59877;BME280;45749;51.140;17.184;2023-04-27T00:59:06;100331.13;;;5.83;65.21
59877;BME280;45749;51.140;17.184;2023-04-27T01:01:31;100320.16;;;5.77;64.98
59877;BME280;45749;51.140;17.184;2023-04-27T01:03:57;100330.63;;;5.77;65.28
59877;BME280;45749;51.140;17.184;2023-04-27T01:06:22;100321.97;;;5.75;65.17
59877;BME280;45749;51.140;17.184;2023-04-27T01:08:48;100322.25;;;5.70;65.58
59877;BME280;45749;51.140;17.184;2023-04-27T01:11:14;100319.47;;;5.73;65.34
59877;BME280;45749;51.140;17.184;2023-04-27T01:13:40;100307.38;;;5.71;65.49
59877;BME280;45749;51.140;17.184;2023-04-27T01:16:05;100326.91;;;5.81;65.37
59877;BME280;45749;51.140;17.184;2023-04-27T01:18:31;100326.91;;;5.81;65.18
59877;BME280;45749;51.140;17.184;2023-04-27T01:20:57;100326.91;;;5.81;65.44
59877;BME280;45749;51.140;17.184;2023-04-27T01:23:24;100328.75;;;5.79;65.34
59877;BME280;45749;51.140;17.184;2023-04-27T01:25:50;100334.13;;;5.76;65.41
59877;BME280;45749;51.140;17.184;2023-04-27T01:28:15;100332.47;;;5.75;65.20
59877;BME280;45749;51.140;17.184;2023-04-27T01:30:40;100330.94;;;5.71;65.40
59877;BME280;45749;51.140;17.184;2023-04-27T01:33:06;100330.09;;;5.70;65.67
59877;BME280;45749;51.140;17.184;2023-04-27T01:35:31;100331.94;;;5.68;65.53
59877;BME280;45749;51.140;17.184;2023-04-27T01:37:57;100338.94;;;5.68;65.77
59877;BME280;45749;51.140;17.184;2023-04-27T01:40:22;100337.31;;;5.65;65.85
59877;BME280;45749;51.140;17.184;2023-04-27T01:42:47;100329.88;;;5.57;65.50
59877;BME280;45749;51.140;17.184;2023-04-27T01:45:13;100344.59;;;5.60;65.88
59877;BME280;45749;51.140;17.184;2023-04-27T01:47:38;100341.03;;;5.61;66.08
59877;BME280;45749;51.140;17.184;2023-04-27T01:50:04;100340.41;;;5.56;65.52
59877;BME280;45749;51.140;17.184;2023-04-27T01:52:30;100342.34;;;5.52;65.91
59877;BME280;45749;51.140;17.184;2023-04-27T01:54:55;100340.22;;;5.43;65.86
59877;BME280;45749;51.140;17.184;2023-04-27T01:57:21;100341.13;;;5.42;65.59
59877;BME280;45749;51.140;17.184;2023-04-27T01:59:46;100330.81;;;5.39;66.32
59877;BME280;45749;51.140;17.184;2023-04-27T02:02:12;100341.06;;;5.44;66.32
59877;BME280;45749;51.140;17.184;2023-04-27T02:04:37;100342.13;;;5.39;65.98
59877;BME280;45749;51.140;17.184;2023-04-27T02:07:03;100343.00;;;5.40;66.21
59877;BME280;45749;51.140;17.184;2023-04-27T02:09:28;100343.84;;;5.40;66.27
59877;BME280;45749;51.140;17.184;2023-04-27T02:11:53;100349.28;;;5.36;65.88
59877;BME280;45749;51.140;17.184;2023-04-27T02:14:19;100340.84;;;5.31;65.89
59877;BME280;45749;51.140;17.184;2023-04-27T02:16:44;100353.81;;;5.32;66.11
59877;BME280;45749;51.140;17.184;2023-04-27T02:19:10;100353.13;;;5.29;65.87
59877;BME280;45749;51.140;17.184;2023-04-27T02:21:35;100348.06;;;5.26;66.26
59877;BME280;45749;51.140;17.184;2023-04-27T02:24:01;100351.38;;;5.29;66.50
59877;BME280;45749;51.140;17.184;2023-04-27T02:26:26;100342.47;;;5.33;66.24
59877;BME280;45749;51.140;17.184;2023-04-27T02:28:55;100348.69;;;5.31;66.38
59877;BME280;45749;51.140;17.184;2023-04-27T02:31:23;100351.69;;;5.23;66.13
59877;BME280;45749;51.140;17.184;2023-04-27T02:33:49;100351.69;;;5.23;66.64
59877;BME280;45749;51.140;17.184;2023-04-27T02:36:14;100340.50;;;5.20;66.70
59877;BME280;45749;51.140;17.184;2023-04-27T02:38:39;100351.84;;;5.20;66.26
59877;BME280;45749;51.140;17.184;2023-04-27T02:41:05;100363.91;;;5.23;66.31
59877;BME280;45749;51.140;17.184;2023-04-27T02:43:30;100365.00;;;5.18;66.63
59877;BME280;45749;51.140;17.184;2023-04-27T02:45:56;100367.00;;;5.13;66.46
59877;BME280;45749;51.140;17.184;2023-04-27T02:48:21;100353.69;;;5.01;66.74
59877;BME280;45749;51.140;17.184;2023-04-27T02:50:47;100360.69;;;5.00;66.98
59877;BME280;45749;51.140;17.184;2023-04-27T02:53:12;100358.81;;;5.02;67.01
59877;BME280;45749;51.140;17.184;2023-04-27T02:55:38;100363.34;;;4.99;66.76
59877;BME280;45749;51.140;17.184;2023-04-27T02:58:03;100351.09;;;4.82;67.09
59877;BME280;45749;51.140;17.184;2023-04-27T03:00:29;100359.72;;;4.84;67.34
59877;BME280;45749;51.140;17.184;2023-04-27T03:02:54;100362.34;;;4.84;67.45
59877;BME280;45749;51.140;17.184;2023-04-27T03:05:20;100363.47;;;4.78;67.07
59877;BME280;45749;51.140;17.184;2023-04-27T03:07:46;100359.25;;;4.76;67.58
59877;BME280;45749;51.140;17.184;2023-04-27T03:10:11;100361.00;;;4.75;67.74
59877;BME280;45749;51.140;17.184;2023-04-27T03:12:37;100364.31;;;4.79;67.54
59877;BME280;45749;51.140;17.184;2023-04-27T03:15:02;100364.41;;;4.77;67.90
59877;BME280;45749;51.140;17.184;2023-04-27T03:17:28;100365.09;;;4.81;67.48
59877;BME280;45749;51.140;17.184;2023-04-27T03:19:53;100372.16;;;4.79;67.37
59877;BME280;45749;51.140;17.184;2023-04-27T03:22:19;100366.94;;;4.79;67.64
59877;BME280;45749;51.140;17.184;2023-04-27T03:24:45;100366.16;;;4.77;67.59
59877;BME280;45749;51.140;17.184;2023-04-27T03:27:11;100358.31;;;4.77;67.62
59877;BME280;45749;51.140;17.184;2023-04-27T03:29:36;100371.25;;;4.80;67.64
59877;BME280;45749;51.140;17.184;2023-04-27T03:32:02;100365.09;;;4.81;67.88
59877;BME280;45749;51.140;17.184;2023-04-27T03:34:31;100367.63;;;4.82;67.79
59877;BME280;45749;51.140;17.184;2023-04-27T03:36:56;100376.31;;;4.83;67.90
59877;BME280;45749;51.140;17.184;2023-04-27T03:39:22;100371.88;;;4.85;67.62
59877;BME280;45749;51.140;17.184;2023-04-27T03:41:47;100376.81;;;4.91;67.85
59877;BME280;45749;51.140;17.184;2023-04-27T03:44:13;100384.81;;;4.88;67.69
59877;BME280;45749;51.140;17.184;2023-04-27T03:46:38;100383.25;;;4.84;67.72
59877;BME280;45749;51.140;17.184;2023-04-27T03:49:03;100393.09;;;4.79;67.64
59877;BME280;45749;51.140;17.184;2023-04-27T03:51:30;100383.06;;;4.69;67.81
59877;BME280;45749;51.140;17.184;2023-04-27T03:53:57;100386.50;;;4.70;68.17
59877;BME280;45749;51.140;17.184;2023-04-27T03:56:22;100391.69;;;4.72;67.97
59877;BME280;45749;51.140;17.184;2023-04-27T03:58:48;100389.13;;;4.70;67.83
59877;BME280;45749;51.140;17.184;2023-04-27T04:01:13;100393.66;;;4.66;68.44
59877;BME280;45749;51.140;17.184;2023-04-27T04:03:39;100400.59;;;4.67;68.31
59877;BME280;45749;51.140;17.184;2023-04-27T04:06:05;100380.25;;;4.55;68.44
59877;BME280;45749;51.140;17.184;2023-04-27T04:08:30;100402.47;;;4.64;68.30
59877;BME280;45749;51.140;17.184;2023-04-27T04:10:57;100405.81;;;4.67;68.58
59877;BME280;45749;51.140;17.184;2023-04-27T04:13:22;100397.97;;;4.67;68.38
59877;BME280;45749;51.140;17.184;2023-04-27T04:15:48;100406.53;;;4.71;68.76
59877;BME280;45749;51.140;17.184;2023-04-27T04:18:13;100408.91;;;4.76;68.79
59877;BME280;45749;51.140;17.184;2023-04-27T04:20:38;100401.91;;;4.76;68.62
59877;BME280;45749;51.140;17.184;2023-04-27T04:23:04;100407.00;;;4.79;68.95
59877;BME280;45749;51.140;17.184;2023-04-27T04:25:29;100415.09;;;4.92;68.82
59877;BME280;45749;51.140;17.184;2023-04-27T04:27:56;100413.13;;;4.97;68.52
59877;BME280;45749;51.140;17.184;2023-04-27T04:30:22;100421.72;;;4.99;69.00
59877;BME280;45749;51.140;17.184;2023-04-27T04:32:47;100425.00;;;5.04;69.02
59877;BME280;45749;51.140;17.184;2023-04-27T04:35:13;100428.84;;;5.14;69.00
59877;BME280;45749;51.140;17.184;2023-04-27T04:37:41;100425.16;;;5.18;69.18
59877;BME280;45749;51.140;17.184;2023-04-27T04:40:08;100425.56;;;5.28;69.44
59877;BME280;45749;51.140;17.184;2023-04-27T04:42:35;100430.94;;;5.43;69.46
59877;BME280;45749;51.140;17.184;2023-04-27T04:45:02;100446.28;;;5.50;69.23
59877;BME280;45749;51.140;17.184;2023-04-27T04:47:28;100434.66;;;5.56;69.23
59877;BME280;45749;51.140;17.184;2023-04-27T04:49:56;100442.88;;;5.65;68.74
59877;BME280;45749;51.140;17.184;2023-04-27T04:52:22;100446.13;;;5.71;68.68
59877;BME280;45749;51.140;17.184;2023-04-27T04:54:50;100447.91;;;5.70;68.53
59877;BME280;45749;51.140;17.184;2023-04-27T04:57:16;100444.34;;;5.71;68.43
59877;BME280;45749;51.140;17.184;2023-04-27T04:59:42;100451.44;;;5.69;68.29
59877;BME280;45749;51.140;17.184;2023-04-27T05:02:07;100452.53;;;5.65;68.39
59877;BME280;45749;51.140;17.184;2023-04-27T05:04:32;100449.22;;;5.61;68.10
59877;BME280;45749;51.140;17.184;2023-04-27T05:06:58;100455.44;;;5.59;68.01
59877;BME280;45749;51.140;17.184;2023-04-27T05:09:24;100462.44;;;5.58;67.77
59877;BME280;45749;51.140;17.184;2023-04-27T05:11:50;100454.59;;;5.58;68.14
59877;BME280;45749;51.140;17.184;2023-04-27T05:14:15;100470.09;;;5.63;68.09
59877;BME280;45749;51.140;17.184;2023-04-27T05:16:41;100470.16;;;5.61;68.05
59877;BME280;45749;51.140;17.184;2023-04-27T05:19:07;100465.84;;;5.60;68.25
59877;BME280;45749;51.140;17.184;2023-04-27T05:21:32;100459.84;;;5.58;68.26
59877;BME280;45749;51.140;17.184;2023-04-27T05:23:58;100458.75;;;5.62;68.14
59877;BME280;45749;51.140;17.184;2023-04-27T05:26:23;100466.41;;;5.67;68.08
59877;BME280;45749;51.140;17.184;2023-04-27T05:28:49;100465.41;;;5.70;68.45
59877;BME280;45749;51.140;17.184;2023-04-27T05:31:14;100465.94;;;5.76;68.18
59877;BME280;45749;51.140;17.184;2023-04-27T05:33:40;100472.16;;;5.74;68.22
59877;BME280;45749;51.140;17.184;2023-04-27T05:36:05;100472.75;;;5.79;68.71
59877;BME280;45749;51.140;17.184;2023-04-27T05:38:31;100467.31;;;5.83;68.06
59877;BME280;45749;51.140;17.184;2023-04-27T05:40:58;100464.59;;;5.85;68.06
59877;BME280;45749;51.140;17.184;2023-04-27T05:43:24;100468.59;;;5.92;67.77
59877;BME280;45749;51.140;17.184;2023-04-27T05:45:50;100471.09;;;5.95;67.45
59877;BME280;45749;51.140;17.184;2023-04-27T05:48:16;100474.78;;;5.91;67.60
59877;BME280;45749;51.140;17.184;2023-04-27T05:50:41;100482.44;;;5.96;67.88
59877;BME280;45749;51.140;17.184;2023-04-27T05:53:07;100480.19;;;6.05;68.04
59877;BME280;45749;51.140;17.184;2023-04-27T05:55:32;100477.41;;;6.08;67.76
59877;BME280;45749;51.140;17.184;2023-04-27T05:57:58;100475.31;;;6.15;67.67
59877;BME280;45749;51.140;17.184;2023-04-27T06:00:23;100481.84;;;6.24;67.30
59877;BME280;45749;51.140;17.184;2023-04-27T06:02:49;100481.84;;;6.24;67.51
59877;BME280;45749;51.140;17.184;2023-04-27T06:05:14;100487.56;;;6.32;67.74
59877;BME280;45749;51.140;17.184;2023-04-27T06:07:40;100489.94;;;6.37;67.20
59877;BME280;45749;51.140;17.184;2023-04-27T06:10:10;100485.53;;;6.37;67.32
59877;BME280;45749;51.140;17.184;2023-04-27T06:12:36;100493.06;;;6.43;67.75
59877;BME280;45749;51.140;17.184;2023-04-27T06:15:02;100488.59;;;6.45;67.20
59877;BME280;45749;51.140;17.184;2023-04-27T06:17:32;100489.34;;;6.47;67.27
59877;BME280;45749;51.140;17.184;2023-04-27T06:19:57;100488.44;;;6.48;67.12
59877;BME280;45749;51.140;17.184;2023-04-27T06:22:23;100482.28;;;6.49;67.58
59877;BME280;45749;51.140;17.184;2023-04-27T06:24:48;100485.31;;;6.57;67.12
59877;BME280;45749;51.140;17.184;2023-04-27T06:27:14;100487.53;;;6.65;67.64
59877;BME280;45749;51.140;17.184;2023-04-27T06:29:40;100493.22;;;6.73;67.06
59877;BME280;45749;51.140;17.184;2023-04-27T06:32:06;100477.03;;;6.81;66.90
59877;BME280;45749;51.140;17.184;2023-04-27T06:34:32;100483.06;;;6.83;66.60
59877;BME280;45749;51.140;17.184;2023-04-27T06:36:58;100490.59;;;6.89;66.71
59877;BME280;45749;51.140;17.184;2023-04-27T06:39:23;100494.69;;;6.95;66.31
59877;BME280;45749;51.140;17.184;2023-04-27T06:41:49;100498.03;;;6.97;66.12
59877;BME280;45749;51.140;17.184;2023-04-27T06:44:14;100507.53;;;6.99;66.45
59877;BME280;45749;51.140;17.184;2023-04-27T06:46:39;100509.16;;;7.02;66.37
59877;BME280;45749;51.140;17.184;2023-04-27T06:49:05;100485.88;;;6.96;66.13
59877;BME280;45749;51.140;17.184;2023-04-27T06:51:31;100495.03;;;7.04;66.44
59877;BME280;45749;51.140;17.184;2023-04-27T06:53:56;100492.22;;;7.08;66.65
59877;BME280;45749;51.140;17.184;2023-04-27T06:56:21;100492.31;;;7.22;67.42
59877;BME280;45749;51.140;17.184;2023-04-27T06:58:47;100481.13;;;7.34;66.60
59877;BME280;45749;51.140;17.184;2023-04-27T07:01:12;100479.31;;;7.50;67.51
59877;BME280;45749;51.140;17.184;2023-04-27T07:03:38;100477.84;;;7.61;66.29
59877;BME280;45749;51.140;17.184;2023-04-27T07:06:03;100481.63;;;7.71;65.97
59877;BME280;45749;51.140;17.184;2023-04-27T07:08:28;100484.81;;;7.76;66.16
59877;BME280;45749;51.140;17.184;2023-04-27T07:10:54;100483.44;;;7.85;66.30
59877;BME280;45749;51.140;17.184;2023-04-27T07:13:20;100474.25;;;7.92;65.52
59877;BME280;45749;51.140;17.184;2023-04-27T07:15:46;100485.84;;;8.04;65.39
59877;BME280;45749;51.140;17.184;2023-04-27T07:18:11;100480.03;;;8.13;65.43
59877;BME280;45749;51.140;17.184;2023-04-27T07:20:37;100483.13;;;8.19;65.28
59877;BME280;45749;51.140;17.184;2023-04-27T07:23:02;100487.94;;;8.27;65.40
59877;BME280;45749;51.140;17.184;2023-04-27T07:25:28;100482.97;;;8.37;64.90
59877;BME280;45749;51.140;17.184;2023-04-27T07:27:53;100482.44;;;8.46;65.03
59877;BME280;45749;51.140;17.184;2023-04-27T07:30:19;100493.31;;;8.54;64.82
59877;BME280;45749;51.140;17.184;2023-04-27T07:32:44;100491.81;;;8.64;65.14
59877;BME280;45749;51.140;17.184;2023-04-27T07:35:11;100485.59;;;8.80;65.09
59877;BME280;45749;51.140;17.184;2023-04-27T07:37:37;100486.22;;;8.98;64.64
59877;BME280;45749;51.140;17.184;2023-04-27T07:40:03;100479.63;;;9.05;63.88
59877;BME280;45749;51.140;17.184;2023-04-27T07:42:43;100473.22;;;9.09;63.96
59877;BME280;45749;51.140;17.184;2023-04-27T07:45:10;100487.28;;;9.22;64.22
59877;BME280;45749;51.140;17.184;2023-04-27T07:47:36;100488.00;;;9.38;63.84
59877;BME280;45749;51.140;17.184;2023-04-27T07:50:02;100484.44;;;9.52;64.01
59877;BME280;45749;51.140;17.184;2023-04-27T07:52:28;100479.81;;;9.56;63.24
59877;BME280;45749;51.140;17.184;2023-04-27T07:54:54;100483.84;;;9.61;62.86
59877;BME280;45749;51.140;17.184;2023-04-27T07:57:19;100487.00;;;9.67;63.94
59877;BME280;45749;51.140;17.184;2023-04-27T07:59:45;100494.13;;;9.79;63.53
59877;BME280;45749;51.140;17.184;2023-04-27T08:02:11;100490.66;;;9.91;63.58
59877;BME280;45749;51.140;17.184;2023-04-27T08:04:37;100491.09;;;9.98;62.22
59877;BME280;45749;51.140;17.184;2023-04-27T08:07:02;100492.56;;;10.02;61.11
59877;BME280;45749;51.140;17.184;2023-04-27T08:09:27;100495.00;;;10.05;61.51
59877;BME280;45749;51.140;17.184;2023-04-27T08:11:53;100490.66;;;10.17;61.33
59877;BME280;45749;51.140;17.184;2023-04-27T08:14:18;100498.28;;;10.21;61.38
59877;BME280;45749;51.140;17.184;2023-04-27T08:16:44;100505.16;;;10.24;60.77
59877;BME280;45749;51.140;17.184;2023-04-27T08:19:10;100487.22;;;10.29;60.81
59877;BME280;45749;51.140;17.184;2023-04-27T08:21:36;100493.47;;;10.41;61.01
59877;BME280;45749;51.140;17.184;2023-04-27T08:24:03;100497.47;;;10.46;61.39
59877;BME280;45749;51.140;17.184;2023-04-27T08:26:28;100497.91;;;10.53;60.05
59877;BME280;45749;51.140;17.184;2023-04-27T08:28:54;100499.38;;;10.57;60.58
59877;BME280;45749;51.140;17.184;2023-04-27T08:31:24;100499.25;;;10.59;59.50
59877;BME280;45749;51.140;17.184;2023-04-27T08:33:50;100499.03;;;10.62;59.75
59877;BME280;45749;51.140;17.184;2023-04-27T08:36:18;100501.56;;;10.76;59.97
59877;BME280;45749;51.140;17.184;2023-04-27T08:38:43;100489.72;;;10.82;59.46
59877;BME280;45749;51.140;17.184;2023-04-27T08:41:09;100492.44;;;10.93;59.06
59877;BME280;45749;51.140;17.184;2023-04-27T08:43:34;100497.03;;;11.02;58.64
59877;BME280;45749;51.140;17.184;2023-04-27T08:46:00;100501.25;;;11.17;59.19
59877;BME280;45749;51.140;17.184;2023-04-27T08:48:26;100505.84;;;11.26;58.08
59877;BME280;45749;51.140;17.184;2023-04-27T08:50:52;100503.00;;;11.30;56.58
59877;BME280;45749;51.140;17.184;2023-04-27T08:53:21;100504.81;;;11.29;57.89
59877;BME280;45749;51.140;17.184;2023-04-27T08:55:50;100505.28;;;11.34;57.76
59877;BME280;45749;51.140;17.184;2023-04-27T08:58:15;100498.81;;;11.38;57.97
59877;BME280;45749;51.140;17.184;2023-04-27T09:00:42;100507.66;;;11.50;58.27
59877;BME280;45749;51.140;17.184;2023-04-27T09:03:21;100506.03;;;11.60;57.16
59877;BME280;45749;51.140;17.184;2023-04-27T09:05:47;100505.56;;;11.66;57.17
59877;BME280;45749;51.140;17.184;2023-04-27T09:08:13;100500.06;;;11.69;56.61
59877;BME280;45749;51.140;17.184;2023-04-27T09:10:51;100509.78;;;11.69;56.03
59877;BME280;45749;51.140;17.184;2023-04-27T09:13:18;100504.28;;;11.72;55.87
59877;BME280;45749;51.140;17.184;2023-04-27T09:15:48;100501.50;;;11.73;56.46
59877;BME280;45749;51.140;17.184;2023-04-27T09:20:45;100494.50;;;11.85;56.99
59877;BME280;45749;51.140;17.184;2023-04-27T09:23:24;100487.19;;;12.00;56.77
59877;BME280;45749;51.140;17.184;2023-04-27T09:25:50;100493.69;;;12.07;54.68
59877;BME280;45749;51.140;17.184;2023-04-27T09:28:16;100493.22;;;12.02;54.67
59877;BME280;45749;51.140;17.184;2023-04-27T09:30:50;100480.47;;;12.07;55.35
59877;BME280;45749;51.140;17.184;2023-04-27T09:33:21;100489.16;;;12.20;55.13
59877;BME280;45749;51.140;17.184;2023-04-27T09:35:48;100484.88;;;12.31;56.33
59877;BME280;45749;51.140;17.184;2023-04-27T09:38:19;100490.28;;;12.40;54.00
59877;BME280;45749;51.140;17.184;2023-04-27T09:40:45;100486.31;;;12.35;54.89
59877;BME280;45749;51.140;17.184;2023-04-27T09:43:11;100485.97;;;12.51;54.40
59877;BME280;45749;51.140;17.184;2023-04-27T09:45:37;100479.31;;;12.56;53.05
59877;BME280;45749;51.140;17.184;2023-04-27T09:48:04;100483.91;;;12.54;52.83
59877;BME280;45749;51.140;17.184;2023-04-27T09:50:34;100490.91;;;12.44;51.34
59877;BME280;45749;51.140;17.184;2023-04-27T09:53:01;100495.59;;;12.40;52.09
59877;BME280;45749;51.140;17.184;2023-04-27T09:55:39;100489.44;;;12.40;51.51
59877;BME280;45749;51.140;17.184;2023-04-27T10:01:23;100493.41;;;12.34;51.12
59877;BME280;45749;51.140;17.184;2023-04-27T10:06:59;100486.19;;;12.25;51.44
59877;BME280;45749;51.140;17.184;2023-04-27T10:09:26;100470.91;;;12.29;51.70
59877;BME280;45749;51.140;17.184;2023-04-27T10:11:54;100468.63;;;12.47;51.57
59877;BME280;45749;51.140;17.184;2023-04-27T10:14:21;100484.16;;;12.74;51.29
59877;BME280;45749;51.140;17.184;2023-04-27T10:16:50;100482.56;;;12.82;50.81
59877;BME280;45749;51.140;17.184;2023-04-27T10:19:16;100473.69;;;12.83;50.42
59877;BME280;45749;51.140;17.184;2023-04-27T10:27:06;100482.69;;;12.81;47.83
59877;BME280;45749;51.140;17.184;2023-04-27T10:29:43;100468.03;;;12.54;47.83
59877;BME280;45749;51.140;17.184;2023-04-27T10:32:17;100482.59;;;12.49;48.15
59877;BME280;45749;51.140;17.184;2023-04-27T10:34:43;100482.81;;;12.46;48.37
59877;BME280;45749;51.140;17.184;2023-04-27T10:37:11;100475.84;;;12.44;46.98
59877;BME280;45749;51.140;17.184;2023-04-27T10:39:43;100475.72;;;12.35;46.95
59877;BME280;45749;51.140;17.184;2023-04-27T10:42:09;100476.44;;;12.37;48.38
59877;BME280;45749;51.140;17.184;2023-04-27T10:44:36;100471.16;;;12.48;48.59
59877;BME280;45749;51.140;17.184;2023-04-27T10:47:13;100473.94;;;12.58;47.78
59877;BME280;45749;51.140;17.184;2023-04-27T10:49:39;100481.75;;;12.59;48.48
59877;BME280;45749;51.140;17.184;2023-04-27T10:52:04;100476.94;;;12.64;47.75
59877;BME280;45749;51.140;17.184;2023-04-27T10:54:31;100474.03;;;12.67;47.93
59877;BME280;45749;51.140;17.184;2023-04-27T10:57:07;100484.50;;;12.69;47.56
59877;BME280;45749;51.140;17.184;2023-04-27T10:59:35;100483.81;;;12.67;47.78
59877;BME280;45749;51.140;17.184;2023-04-27T11:02:11;100479.34;;;12.67;47.83
59877;BME280;45749;51.140;17.184;2023-04-27T11:04:39;100484.41;;;12.71;48.44
59877;BME280;45749;51.140;17.184;2023-04-27T11:07:07;100481.50;;;12.74;48.69
59877;BME280;45749;51.140;17.184;2023-04-27T11:09:37;100488.59;;;12.73;47.69
59877;BME280;45749;51.140;17.184;2023-04-27T11:12:08;100481.84;;;12.69;47.93
59877;BME280;45749;51.140;17.184;2023-04-27T11:14:36;100480.53;;;12.63;46.75
59877;BME280;45749;51.140;17.184;2023-04-27T11:17:03;100495.22;;;12.56;46.37
59877;BME280;45749;51.140;17.184;2023-04-27T11:19:28;100487.75;;;12.50;45.81
59877;BME280;45749;51.140;17.184;2023-04-27T11:22:04;100496.16;;;12.33;44.77
59877;BME280;45749;51.140;17.184;2023-04-27T11:24:31;100498.44;;;12.15;45.27
59877;BME280;45749;51.140;17.184;2023-04-27T11:26:57;100498.06;;;12.08;45.73
59877;BME280;45749;51.140;17.184;2023-04-27T11:29:22;100499.00;;;12.07;45.83
59877;BME280;45749;51.140;17.184;2023-04-27T11:31:49;100494.94;;;12.14;45.91
59877;BME280;45749;51.140;17.184;2023-04-27T11:36:42;100498.09;;;12.31;46.82
59877;BME280;45749;51.140;17.184;2023-04-27T11:39:07;100489.78;;;12.35;46.19
59877;BME280;45749;51.140;17.184;2023-04-27T11:41:35;100493.78;;;12.41;46.77
59877;BME280;45749;51.140;17.184;2023-04-27T11:44:09;100485.59;;;12.44;46.48
59877;BME280;45749;51.140;17.184;2023-04-27T11:46:35;100499.06;;;12.52;47.23
59877;BME280;45749;51.140;17.184;2023-04-27T11:49:03;100512.19;;;12.54;46.59
59877;BME280;45749;51.140;17.184;2023-04-27T11:51:30;100507.25;;;12.38;45.97
59877;BME280;45749;51.140;17.184;2023-04-27T11:54:04;100513.47;;;12.26;46.10
59877;BME280;45749;51.140;17.184;2023-04-27T11:56:38;100509.84;;;12.15;46.14
59877;BME280;45749;51.140;17.184;2023-04-27T11:59:03;100517.88;;;12.14;45.76
59877;BME280;45749;51.140;17.184;2023-04-27T12:01:33;100514.16;;;12.16;45.00
59877;BME280;45749;51.140;17.184;2023-04-27T12:04:00;100508.41;;;12.11;45.59
59877;BME280;45749;51.140;17.184;2023-04-27T12:06:26;100508.88;;;12.16;44.62
59877;BME280;45749;51.140;17.184;2023-04-27T12:08:56;100516.59;;;12.19;45.53
59877;BME280;45749;51.140;17.184;2023-04-27T12:11:24;100519.50;;;12.28;44.62
59877;BME280;45749;51.140;17.184;2023-04-27T12:13:50;100512.16;;;12.31;43.90
59877;BME280;45749;51.140;17.184;2023-04-27T12:16:17;100509.63;;;12.30;44.87
59877;BME280;45749;51.140;17.184;2023-04-27T12:18:42;100505.66;;;12.35;45.51
59877;BME280;45749;51.140;17.184;2023-04-27T12:21:08;100497.25;;;12.41;45.06
59877;BME280;45749;51.140;17.184;2023-04-27T12:23:34;100501.72;;;12.52;44.74
59877;BME280;45749;51.140;17.184;2023-04-27T12:26:00;100507.13;;;12.62;44.11
59877;BME280;45749;51.140;17.184;2023-04-27T12:28:26;100493.41;;;12.68;45.21
59877;BME280;45749;51.140;17.184;2023-04-27T12:30:51;100497.50;;;12.83;45.68
59877;BME280;45749;51.140;17.184;2023-04-27T12:33:17;100493.06;;;12.84;44.30
59877;BME280;45749;51.140;17.184;2023-04-27T12:35:42;100496.66;;;12.83;44.22
59877;BME280;45749;51.140;17.184;2023-04-27T12:38:07;100495.31;;;12.88;45.03
59877;BME280;45749;51.140;17.184;2023-04-27T12:40:33;100492.41;;;13.03;45.20
59877;BME280;45749;51.140;17.184;2023-04-27T12:42:59;100508.66;;;13.09;43.24
59877;BME280;45749;51.140;17.184;2023-04-27T12:45:25;100510.72;;;12.95;43.90
59877;BME280;45749;51.140;17.184;2023-04-27T12:47:51;100501.84;;;12.84;44.24
59877;BME280;45749;51.140;17.184;2023-04-27T12:50:18;100511.84;;;12.81;43.80
59877;BME280;45749;51.140;17.184;2023-04-27T12:52:44;100500.63;;;12.66;43.63
59877;BME280;45749;51.140;17.184;2023-04-27T12:55:09;100507.00;;;12.63;43.92
59877;BME280;45749;51.140;17.184;2023-04-27T12:57:35;100513.25;;;12.62;43.75